createdAt,value
2018-08-19T00:02:14.925Z,95.70
2018-08-19T00:04:45.303Z,95.80
2018-08-19T00:07:13.533Z,95.80
2018-08-19T00:09:41.757Z,96.00
2018-08-19T00:12:10.033Z,96.40
2018-08-19T00:14:38.275Z,96.30
2018-08-19T00:17:06.540Z,96.30
2018-08-19T00:19:35.274Z,96.20
2018-08-19T00:22:03.856Z,96.30
2018-08-19T00:24:32.074Z,96.50
2018-08-19T00:27:00.361Z,96.70
2018-08-19T00:29:32.807Z,96.80
2018-08-19T00:32:01.761Z,96.90
2018-08-19T00:34:32.461Z,97.00
2018-08-19T00:37:00.995Z,97.20
2018-08-19T00:39:29.254Z,97.40
2018-08-19T00:41:59.898Z,97.40
2018-08-19T00:44:28.180Z,97.60
2018-08-19T00:46:56.425Z,97.80
2018-08-19T00:49:24.701Z,97.80
2018-08-19T00:51:59.109Z,98.00
2018-08-19T00:54:28.512Z,98.00
2018-08-19T00:56:57.797Z,98.30
2018-08-19T00:59:27.876Z,98.40
2018-08-19T01:01:56.129Z,98.50
2018-08-19T01:04:24.631Z,98.70
2018-08-19T01:06:54.744Z,98.60
2018-08-19T01:09:27.365Z,98.60
2018-08-19T01:11:55.650Z,98.50
2018-08-19T01:14:23.942Z,98.60
2018-08-19T01:16:52.250Z,98.70
2018-08-19T01:19:20.616Z,98.80
2018-08-19T01:21:52.857Z,99.00
2018-08-19T01:24:21.365Z,99.10
2018-08-19T01:26:49.651Z,99.30
2018-08-19T01:29:33.487Z,99.20
2018-08-19T01:32:08.881Z,99.00
2018-08-19T01:34:37.278Z,99.00
2018-08-19T01:37:05.645Z,99.10
2018-08-19T01:39:36.371Z,99.20
2018-08-19T01:42:05.778Z,99.20
2018-08-19T01:44:34.061Z,99.20
2018-08-19T01:47:02.525Z,99.30
2018-08-19T01:49:30.762Z,99.80
2018-08-19T01:51:58.979Z,99.50
2018-08-19T01:54:27.245Z,99.70
2018-08-19T01:56:57.441Z,99.90
2018-08-19T01:59:31.659Z,99.90
2018-08-19T02:02:01.740Z,99.90
2018-08-19T02:04:30.836Z,99.90
2018-08-19T02:06:59.550Z,99.90
2018-08-19T02:09:27.777Z,99.90
2018-08-19T02:12:00.065Z,99.90
2018-08-19T02:14:28.301Z,99.90
2018-08-19T02:16:57.240Z,99.90
2018-08-19T02:19:25.490Z,99.90
2018-08-19T02:21:53.993Z,99.90
2018-08-19T02:24:22.207Z,99.90
2018-08-19T02:26:50.474Z,99.90
2018-08-19T02:29:37.464Z,99.90
2018-08-19T02:32:07.382Z,99.90
2018-08-19T02:34:37.540Z,99.90
2018-08-19T02:37:12.453Z,99.90
2018-08-19T02:39:42.450Z,99.90
2018-08-19T02:42:20.452Z,99.90
2018-08-19T02:44:48.658Z,99.90
2018-08-19T02:47:16.930Z,99.90
2018-08-19T02:49:45.509Z,99.90
2018-08-19T02:52:17.990Z,99.90
2018-08-19T02:54:46.210Z,99.90
2018-08-19T02:57:14.474Z,99.90
2018-08-19T02:59:42.731Z,99.90
2018-08-19T03:02:23.977Z,99.90
2018-08-19T03:04:53.176Z,99.90
2018-08-19T03:07:22.754Z,99.90
2018-08-19T03:09:56.481Z,99.90
2018-08-19T03:12:24.933Z,99.90
2018-08-19T03:14:53.683Z,99.90
2018-08-19T03:17:21.962Z,99.90
2018-08-19T03:19:51.622Z,99.90
2018-08-19T03:22:19.837Z,99.90
2018-08-19T03:24:48.074Z,99.90
2018-08-19T03:27:16.306Z,99.90
2018-08-19T03:29:49.998Z,99.90
2018-08-19T03:32:18.214Z,99.90
2018-08-19T03:34:46.490Z,99.90
2018-08-19T03:37:15.289Z,99.90
2018-08-19T03:39:44.370Z,99.90
2018-08-19T03:42:13.887Z,99.90
2018-08-19T03:44:42.363Z,99.90
2018-08-19T03:47:25.015Z,99.90
2018-08-19T03:49:53.553Z,99.90
2018-08-19T03:52:21.793Z,99.90
2018-08-19T03:54:50.009Z,99.90
2018-08-19T03:57:19.740Z,99.90
2018-08-19T03:59:47.945Z,99.90
2018-08-19T04:02:16.165Z,99.90
2018-08-19T04:04:44.386Z,99.90
2018-08-19T04:07:12.620Z,99.90
2018-08-19T04:09:40.838Z,99.90
2018-08-19T04:12:14.018Z,99.90
2018-08-19T04:14:42.287Z,99.90
2018-08-19T04:17:12.628Z,99.90
2018-08-19T04:19:40.967Z,99.90
2018-08-19T04:22:09.197Z,99.90
2018-08-19T04:24:37.408Z,99.90
2018-08-19T04:27:07.151Z,99.90
2018-08-19T04:29:35.770Z,99.90
2018-08-19T04:32:05.047Z,99.90
2018-08-19T04:34:33.253Z,99.90
2018-08-19T04:37:02.154Z,99.90
2018-08-19T04:39:30.357Z,99.90
2018-08-19T04:41:58.585Z,99.90
2018-08-19T04:44:28.570Z,99.90
2018-08-19T04:46:56.950Z,99.90
2018-08-19T04:49:25.216Z,99.90
2018-08-19T04:51:53.487Z,99.90
2018-08-19T04:54:21.831Z,99.90
2018-08-19T04:56:50.080Z,99.90
2018-08-19T04:59:18.327Z,99.90
2018-08-19T05:01:46.573Z,99.90
2018-08-19T05:04:14.788Z,99.90
2018-08-19T05:06:43.002Z,99.90
2018-08-19T05:09:11.218Z,99.90
2018-08-19T05:11:39.454Z,99.90
2018-08-19T05:14:07.674Z,99.90
2018-08-19T05:16:36.006Z,99.90
2018-08-19T05:19:04.736Z,99.90
2018-08-19T05:21:33.055Z,99.90
2018-08-19T05:24:01.585Z,99.90
2018-08-19T05:26:29.796Z,99.90
2018-08-19T05:29:07.654Z,99.90
2018-08-19T05:31:41.816Z,99.90
2018-08-19T05:34:16.395Z,99.90
2018-08-19T05:36:48.576Z,99.90
2018-08-19T05:39:17.238Z,99.90
2018-08-19T05:41:59.605Z,99.90
2018-08-19T05:44:29.977Z,99.90
2018-08-19T05:47:02.566Z,99.90
2018-08-19T05:49:30.830Z,99.90
2018-08-19T05:52:02.250Z,99.90
2018-08-19T05:54:30.513Z,99.90
2018-08-19T05:57:03.201Z,99.90
2018-08-19T05:59:31.460Z,99.90
2018-08-19T06:01:59.662Z,99.90
2018-08-19T06:04:27.881Z,99.90
2018-08-19T06:07:07.395Z,99.90
2018-08-19T06:09:35.944Z,99.90
2018-08-19T06:12:04.785Z,99.90
2018-08-19T06:14:33.237Z,99.90
2018-08-19T06:17:03.434Z,99.90
2018-08-19T06:19:32.393Z,99.90
2018-08-19T06:22:00.714Z,99.90
2018-08-19T06:24:28.897Z,99.90
2018-08-19T06:26:57.090Z,99.90
2018-08-19T06:29:41.950Z,99.90
2018-08-19T06:32:12.101Z,99.90
2018-08-19T06:34:40.376Z,99.90
2018-08-19T06:37:08.707Z,99.90
2018-08-19T06:39:36.873Z,99.90
2018-08-19T06:42:05.138Z,99.90
2018-08-19T06:44:33.561Z,99.90
2018-08-19T06:47:01.797Z,99.90
2018-08-19T06:49:30.056Z,99.90
2018-08-19T06:51:58.309Z,99.90
2018-08-19T06:54:26.510Z,99.90
2018-08-19T06:56:55.982Z,99.90
2018-08-19T06:59:24.446Z,99.10
2018-08-19T07:01:52.669Z,99.90
2018-08-19T07:04:20.885Z,99.80
2018-08-19T07:06:49.112Z,99.90
2018-08-19T07:09:17.335Z,99.90
2018-08-19T07:11:58.155Z,99.20
2018-08-19T07:14:27.442Z,99.10
2018-08-19T07:16:55.685Z,98.80
2018-08-19T07:19:24.000Z,98.50
2018-08-19T07:21:57.646Z,97.90
2018-08-19T07:24:26.095Z,97.70
2018-08-19T07:26:54.318Z,97.50
2018-08-19T07:29:24.661Z,97.30
2018-08-19T07:31:53.060Z,96.70
2018-08-19T07:34:21.365Z,96.30
2018-08-19T07:36:49.604Z,95.90
2018-08-19T07:39:17.826Z,95.70
2018-08-19T07:41:46.066Z,95.40
2018-08-19T07:44:14.338Z,95.20
2018-08-19T07:46:42.559Z,95.00
2018-08-19T07:49:10.774Z,94.90
2018-08-19T07:51:39.314Z,94.70
2018-08-19T07:54:07.610Z,94.30
2018-08-19T07:56:36.400Z,93.50
2018-08-19T07:59:06.341Z,93.30
2018-08-19T08:01:37.151Z,93.00
2018-08-19T08:04:05.960Z,92.60
2018-08-19T08:06:34.755Z,92.00
2018-08-19T08:09:05.417Z,91.60
2018-08-19T08:11:33.806Z,91.30
2018-08-19T08:14:02.381Z,91.30
2018-08-19T08:16:30.798Z,91.20
2018-08-19T08:18:59.038Z,90.50
2018-08-19T08:21:28.596Z,90.40
2018-08-19T08:23:56.629Z,90.60
2018-08-19T08:26:25.346Z,90.50
2018-08-19T08:28:58.991Z,90.30
2018-08-19T08:31:27.217Z,90.30
2018-08-19T08:33:55.745Z,90.20
2018-08-19T08:36:23.933Z,89.90
2018-08-19T08:38:52.202Z,89.30
2018-08-19T08:41:20.478Z,88.00
2018-08-19T08:43:48.691Z,87.00
2018-08-19T08:46:16.897Z,83.90
2018-08-19T08:48:45.113Z,84.00
2018-08-19T08:51:13.340Z,83.90
2018-08-19T08:53:44.894Z,83.90
2018-08-19T08:56:13.678Z,83.90
2018-08-19T08:58:41.911Z,83.50
2018-08-19T09:01:10.101Z,81.20
2018-08-19T09:03:38.314Z,80.80
2018-08-19T09:06:15.220Z,79.40
2018-08-19T09:08:43.437Z,78.10
2018-08-19T09:11:11.674Z,77.60
2018-08-19T09:13:39.897Z,75.20
2018-08-19T09:16:08.121Z,75.80
2018-08-19T09:18:36.349Z,75.80
2018-08-19T09:21:05.521Z,74.50
2018-08-19T09:23:33.728Z,73.60
2018-08-19T09:26:01.953Z,73.20
2018-08-19T09:28:30.154Z,73.40
2018-08-19T09:30:58.410Z,71.90
2018-08-19T09:33:26.634Z,70.60
2018-08-19T09:35:54.834Z,70.70
2018-08-19T09:38:23.799Z,70.80
2018-08-19T09:40:52.404Z,69.40
2018-08-19T09:43:20.551Z,68.80
2018-08-19T09:45:49.176Z,68.30
2018-08-19T09:48:17.702Z,67.90
2018-08-19T09:50:46.097Z,67.80
2018-08-19T09:53:14.389Z,67.60
2018-08-19T09:55:44.906Z,67.20
2018-08-19T09:58:18.889Z,67.00
2018-08-19T10:00:52.378Z,66.70
2018-08-19T10:03:20.629Z,66.40
2018-08-19T10:05:48.926Z,65.80
2018-08-19T10:08:17.181Z,65.90
2018-08-19T10:10:45.417Z,65.00
2018-08-19T10:13:15.155Z,64.10
2018-08-19T10:15:43.473Z,63.30
2018-08-19T10:18:11.734Z,63.80
2018-08-19T10:20:40.014Z,63.00
2018-08-19T10:23:08.217Z,62.60
2018-08-19T10:25:36.463Z,61.50
2018-08-19T10:28:04.995Z,59.00
2018-08-19T10:30:33.205Z,59.00
2018-08-19T10:33:07.351Z,59.30
2018-08-19T10:35:35.868Z,58.90
2018-08-19T10:38:04.765Z,58.20
2018-08-19T10:40:33.038Z,55.20
2018-08-19T10:43:05.421Z,53.40
2018-08-19T10:45:37.867Z,51.90
2018-08-19T10:48:08.010Z,52.20
2018-08-19T10:50:36.247Z,50.80
2018-08-19T10:53:10.575Z,49.80
2018-08-19T10:55:38.799Z,47.60
2018-08-19T10:58:07.057Z,44.70
2018-08-19T11:00:35.262Z,43.30
2018-08-19T11:03:09.931Z,43.10
2018-08-19T11:05:41.466Z,42.80
2018-08-19T11:08:10.582Z,42.30
2018-08-19T11:10:39.003Z,41.30
2018-08-19T11:13:07.330Z,38.80
2018-08-19T11:15:44.105Z,36.80
2018-08-19T11:18:22.109Z,34.70
2018-08-19T11:20:52.577Z,31.10
2018-08-19T11:23:21.482Z,29.10
2018-08-19T11:25:51.160Z,28.00
2018-08-19T11:28:42.370Z,26.80
2018-08-19T11:31:18.527Z,27.10
2018-08-19T11:33:46.692Z,26.20
2018-08-19T11:36:14.858Z,25.80
2018-08-19T11:38:51.554Z,26.00
2018-08-19T11:41:20.114Z,26.10
2018-08-19T11:43:49.338Z,26.10
2018-08-19T11:46:17.641Z,26.90
2018-08-19T11:48:46.497Z,27.60
2018-08-19T11:51:14.681Z,28.00
2018-08-19T11:53:42.913Z,26.70
2018-08-19T11:56:11.142Z,24.80
2018-08-19T11:58:47.898Z,22.70
2018-08-19T12:01:17.449Z,20.40
2018-08-19T12:04:02.689Z,19.80
2018-08-19T12:06:33.022Z,18.50
2018-08-19T12:09:02.717Z,17.90
2018-08-19T12:11:32.841Z,18.00
2018-08-19T12:14:04.010Z,17.80
2018-08-19T12:16:38.194Z,18.20
2018-08-19T12:19:11.762Z,17.90
2018-08-19T12:21:44.219Z,17.90
2018-08-19T12:24:33.817Z,17.30
2018-08-19T12:27:03.438Z,16.70
2018-08-19T12:29:32.936Z,16.50
2018-08-19T12:32:11.698Z,16.40
2018-08-19T12:34:43.627Z,16.50
2018-08-19T12:37:12.918Z,15.70
2018-08-19T12:39:40.991Z,15.50
2018-08-19T12:42:09.333Z,15.10
2018-08-19T12:44:37.728Z,14.90
2018-08-19T12:47:10.458Z,15.10
2018-08-19T12:49:41.085Z,15.10
2018-08-19T12:52:10.678Z,14.70
2018-08-19T12:54:38.953Z,14.50
2018-08-19T12:57:07.199Z,14.50
2018-08-19T12:59:35.429Z,14.60
2018-08-19T13:02:03.643Z,14.50
2018-08-19T13:04:31.881Z,14.50
2018-08-19T13:07:02.779Z,14.60
2018-08-19T13:09:31.802Z,14.80
2018-08-19T13:12:04.758Z,14.70
2018-08-19T13:14:32.985Z,14.20
2018-08-19T13:17:01.179Z,14.40
2018-08-19T13:19:30.110Z,14.90
2018-08-19T13:21:58.797Z,15.60
2018-08-19T13:24:35.362Z,15.90
2018-08-19T13:27:03.864Z,15.80
2018-08-19T13:29:32.427Z,15.90
2018-08-19T13:32:00.867Z,15.70
2018-08-19T13:34:29.281Z,15.60
2018-08-19T13:36:57.837Z,15.40
2018-08-19T13:39:26.558Z,15.20
2018-08-19T13:41:54.937Z,15.00
2018-08-19T13:44:23.174Z,14.90
2018-08-19T13:46:51.386Z,15.00
2018-08-19T13:49:27.946Z,15.10
2018-08-19T13:52:00.142Z,15.20
2018-08-19T13:54:28.373Z,14.70
2018-08-19T13:56:56.738Z,15.10
2018-08-19T13:59:24.962Z,15.70
2018-08-19T14:01:53.377Z,16.40
2018-08-19T14:04:21.635Z,16.90
2018-08-19T14:06:49.833Z,16.60
2018-08-19T14:09:18.073Z,16.30
2018-08-19T14:11:46.504Z,16.10
2018-08-19T14:14:14.991Z,15.80
2018-08-19T14:16:43.221Z,15.30
2018-08-19T14:19:11.515Z,15.30
2018-08-19T14:21:39.701Z,15.10
2018-08-19T14:24:07.922Z,14.90
2018-08-19T14:26:36.117Z,14.70
2018-08-19T14:29:04.319Z,14.70
2018-08-19T14:31:32.691Z,14.70
2018-08-19T14:34:00.909Z,14.70
2018-08-19T14:36:29.181Z,14.50
2018-08-19T14:38:57.415Z,14.40
2018-08-19T14:41:25.694Z,14.50
2018-08-19T14:44:00.566Z,14.30
2018-08-19T14:46:29.707Z,14.40
2018-08-19T14:48:58.962Z,14.20
2018-08-19T14:51:28.373Z,14.20
2018-08-19T14:54:19.992Z,14.00
2018-08-19T14:56:48.258Z,13.80
2018-08-19T14:59:16.466Z,13.60
2018-08-19T15:01:45.378Z,13.60
2018-08-19T15:04:14.837Z,13.10
2018-08-19T15:06:44.241Z,13.10
2018-08-19T15:09:16.058Z,13.10
2018-08-19T15:11:44.282Z,13.10
2018-08-19T15:14:16.474Z,13.30
2018-08-19T15:16:46.691Z,13.20
2018-08-19T15:19:15.371Z,13.30
2018-08-19T15:21:47.177Z,13.20
2018-08-19T15:24:15.501Z,13.10
2018-08-19T15:26:43.738Z,13.00
2018-08-19T15:29:16.218Z,12.80
2018-08-19T15:31:44.609Z,12.70
2018-08-19T15:34:12.738Z,12.90
2018-08-19T15:36:41.025Z,13.10
2018-08-19T15:39:09.537Z,13.00
2018-08-19T15:41:37.798Z,13.00
2018-08-19T15:44:06.022Z,13.20
2018-08-19T15:46:34.239Z,13.20
2018-08-19T15:49:02.456Z,13.00
2018-08-19T15:51:30.661Z,13.10
2018-08-19T15:53:58.870Z,13.30
2018-08-19T15:56:28.096Z,13.30
2018-08-19T15:58:56.346Z,13.40
2018-08-19T16:01:27.835Z,13.40
2018-08-19T16:04:31.596Z,13.40
2018-08-19T16:07:00.406Z,13.50
2018-08-19T16:09:29.109Z,14.00
2018-08-19T16:11:57.347Z,13.60
2018-08-19T16:14:32.847Z,13.70
2018-08-19T16:17:02.233Z,13.70
2018-08-19T16:19:30.459Z,13.80
2018-08-19T16:21:59.503Z,14.30
2018-08-19T16:24:28.073Z,15.40
2018-08-19T16:26:56.305Z,16.90
2018-08-19T16:29:24.526Z,18.30
2018-08-19T16:31:52.907Z,19.40
2018-08-19T16:34:21.035Z,20.50
2018-08-19T16:36:49.250Z,21.40
2018-08-19T16:39:18.163Z,22.40
2018-08-19T16:41:46.410Z,23.30
2018-08-19T16:44:15.058Z,23.80
2018-08-19T16:46:43.246Z,24.50
2018-08-19T16:49:11.460Z,25.00
2018-08-19T16:51:39.676Z,25.50
2018-08-19T16:54:07.981Z,26.30
2018-08-19T16:56:36.178Z,26.40
2018-08-19T16:59:04.426Z,26.70
2018-08-19T17:01:32.658Z,27.00
2018-08-19T17:04:00.858Z,27.20
2018-08-19T17:06:29.074Z,27.50
2018-08-19T17:08:57.278Z,27.80
2018-08-19T17:11:25.513Z,28.20
2018-08-19T17:13:53.714Z,28.40
2018-08-19T17:16:21.946Z,28.80
2018-08-19T17:18:50.179Z,29.20
2018-08-19T17:21:18.382Z,29.40
2018-08-19T17:23:49.174Z,29.60
2018-08-19T17:26:19.763Z,29.90
2018-08-19T17:28:48.053Z,30.10
2018-08-19T17:31:16.302Z,30.30
2018-08-19T17:33:44.581Z,30.50
2018-08-19T17:36:21.759Z,30.50
2018-08-19T17:38:50.058Z,30.70
2018-08-19T17:41:18.270Z,30.90
2018-08-19T17:43:46.491Z,31.40
2018-08-19T17:46:15.942Z,31.50
2018-08-19T17:48:44.861Z,31.80
2018-08-19T17:51:25.397Z,32.10
2018-08-19T17:53:53.597Z,32.30
2018-08-19T17:56:21.797Z,32.70
2018-08-19T17:58:50.685Z,32.80
2018-08-19T18:01:19.146Z,33.00
2018-08-19T18:03:47.393Z,33.30
2018-08-19T18:06:15.863Z,33.80
2018-08-19T18:08:50.314Z,34.20
2018-08-19T18:11:18.673Z,34.40
2018-08-19T18:13:46.974Z,34.60
2018-08-19T18:16:15.629Z,35.30
2018-08-19T18:18:44.169Z,34.70
2018-08-19T18:21:12.437Z,35.00
2018-08-19T18:23:44.043Z,35.20
2018-08-19T18:26:12.374Z,35.60
2018-08-19T18:28:43.039Z,35.90
2018-08-19T18:31:11.314Z,36.00
2018-08-19T18:33:41.163Z,36.00
2018-08-19T18:36:09.406Z,35.70
2018-08-19T18:38:37.625Z,35.50
2018-08-19T18:41:05.923Z,35.40
2018-08-19T18:43:34.124Z,35.40
2018-08-19T18:46:02.656Z,35.60
2018-08-19T18:48:31.177Z,35.70
2018-08-19T18:50:59.385Z,35.90
2018-08-19T18:53:28.472Z,36.20
2018-08-19T18:55:56.702Z,36.30
2018-08-19T18:58:24.897Z,36.30
2018-08-19T19:01:00.461Z,36.80
2018-08-19T19:03:28.729Z,37.10
2018-08-19T19:05:57.001Z,37.60
2018-08-19T19:08:25.297Z,38.00
2018-08-19T19:10:58.917Z,38.80
2018-08-19T19:13:27.706Z,39.20
2018-08-19T19:15:56.018Z,39.40
2018-08-19T19:18:24.434Z,39.90
2018-08-19T19:20:58.876Z,40.30
2018-08-19T19:23:30.829Z,40.70
2018-08-19T19:25:59.441Z,41.00
2018-08-19T19:28:27.705Z,41.10
2018-08-19T19:31:17.163Z,41.30
2018-08-19T19:33:45.358Z,42.10
2018-08-19T19:36:19.150Z,43.00
2018-08-19T19:38:52.629Z,43.00
2018-08-19T19:41:27.319Z,43.60
2018-08-19T19:43:56.555Z,44.20
2018-08-19T19:46:25.052Z,45.10
2018-08-19T19:48:53.253Z,45.30
2018-08-19T19:51:21.457Z,45.70
2018-08-19T19:53:49.653Z,45.80
2018-08-19T19:56:19.094Z,46.40
2018-08-19T19:58:48.500Z,46.50
2018-08-19T20:01:17.158Z,46.30
2018-08-19T20:03:50.680Z,45.60
2018-08-19T20:06:18.982Z,45.70
2018-08-19T20:08:47.204Z,45.80
2018-08-19T20:11:20.739Z,45.70
2018-08-19T20:13:49.396Z,45.80
2018-08-19T20:16:18.031Z,46.00
2018-08-19T20:18:46.249Z,46.10
2018-08-19T20:21:19.799Z,46.50
2018-08-19T20:23:48.185Z,46.90
2018-08-19T20:26:16.451Z,47.30
2018-08-19T20:28:44.637Z,47.70
2018-08-19T20:31:12.853Z,47.90
2018-08-19T20:33:41.072Z,48.20
2018-08-19T20:36:09.282Z,48.50
2018-08-19T20:38:37.509Z,49.10
2018-08-19T20:41:05.829Z,49.40
2018-08-19T20:43:34.049Z,49.90
2018-08-19T20:46:02.295Z,50.30
2018-08-19T20:48:30.545Z,50.70
2018-08-19T20:50:58.761Z,51.30
2018-08-19T20:53:26.998Z,51.90
2018-08-19T20:55:55.188Z,52.40
2018-08-19T20:58:23.396Z,52.00
2018-08-19T21:00:51.606Z,52.20
2018-08-19T21:03:20.091Z,52.90
2018-08-19T21:05:48.286Z,53.90
2018-08-19T21:08:17.724Z,54.60
2018-08-19T21:10:46.963Z,55.10
2018-08-19T21:13:16.730Z,55.60
2018-08-19T21:15:47.090Z,56.20
2018-08-19T21:18:15.293Z,56.50
2018-08-19T21:20:43.918Z,56.80
2018-08-19T21:23:12.127Z,57.20
2018-08-19T21:25:47.660Z,57.50
2018-08-19T21:28:16.529Z,57.70
2018-08-19T21:30:44.749Z,57.70
2018-08-19T21:33:13.265Z,57.80
2018-08-19T21:35:46.885Z,57.80
2018-08-19T21:38:15.156Z,58.10
2018-08-19T21:40:43.452Z,58.20
2018-08-19T21:43:11.794Z,58.40
2018-08-19T21:45:40.201Z,58.40
2018-08-19T21:48:11.128Z,58.70
2018-08-19T21:50:39.349Z,58.80
2018-08-19T21:53:09.845Z,59.40
2018-08-19T21:55:39.327Z,59.70
2018-08-19T21:58:07.821Z,60.00
2018-08-19T22:00:38.353Z,60.40
2018-08-19T22:03:16.001Z,60.70
2018-08-19T22:05:44.517Z,61.10
2018-08-19T22:08:12.781Z,61.60
2018-08-19T22:10:42.509Z,62.10
2018-08-19T22:13:11.117Z,63.20
2018-08-19T22:15:40.421Z,64.00
2018-08-19T22:18:10.448Z,65.10
2018-08-19T22:20:38.693Z,65.60
2018-08-19T22:23:07.189Z,66.30
2018-08-19T22:25:35.393Z,67.30
2018-08-19T22:28:03.618Z,67.60
2018-08-19T22:30:31.833Z,67.30
2018-08-19T22:33:00.045Z,67.40
2018-08-19T22:35:30.686Z,68.10
2018-08-19T22:38:02.058Z,67.60
2018-08-19T22:40:34.703Z,67.30
2018-08-19T22:43:02.913Z,66.70
2018-08-19T22:45:31.133Z,67.20
2018-08-19T22:47:59.329Z,67.20
2018-08-19T22:50:28.222Z,68.10
2018-08-19T22:52:56.430Z,68.50
2018-08-19T22:55:24.647Z,69.00
2018-08-19T22:57:54.381Z,69.40
2018-08-19T23:00:25.354Z,70.40
2018-08-19T23:02:53.566Z,71.60
2018-08-19T23:05:21.769Z,72.60
2018-08-19T23:07:49.991Z,73.50
2018-08-19T23:10:18.172Z,74.00
2018-08-19T23:12:46.388Z,74.30
2018-08-19T23:15:25.813Z,73.80
2018-08-19T23:17:54.022Z,73.90
2018-08-19T23:20:22.261Z,73.80
2018-08-19T23:22:50.488Z,74.20
2018-08-19T23:25:18.681Z,75.00
2018-08-19T23:27:46.890Z,75.00
2018-08-19T23:30:15.101Z,75.00
2018-08-19T23:32:43.325Z,75.70
2018-08-19T23:35:11.546Z,76.50
2018-08-19T23:37:39.805Z,77.00
2018-08-19T23:40:08.077Z,76.90
2018-08-19T23:42:36.281Z,76.90
2018-08-19T23:45:04.586Z,77.40
2018-08-19T23:47:32.982Z,78.00
2018-08-19T23:50:01.161Z,78.50
2018-08-19T23:52:29.378Z,78.50
2018-08-19T23:54:57.579Z,79.20
2018-08-19T23:57:25.782Z,79.40
2018-08-19T23:59:54.297Z,80.30
